Time;durP1;ratioP1;P1;durP2;ratioP2;P2;SDS_P1;SDS_P2;PMS_P1;PMS_P2;Temp;Humidity;BMP_temperature;BMP_pressure;BME280_temperature;BME280_humidity;BME280_pressure;Samples;Min_cycle;Max_cycle;Signal;HPM_P1;HPM_P2
2022/10/31 00:01:09;;;;;;;4.28;3.03;;;18.60;99.90;;;;;;5035011;28;20265;-67
2022/10/31 00:03:35;;;;;;;3.65;3.08;;;18.60;99.90;;;;;;5017804;28;20297;-67
2022/10/31 00:06:01;;;;;;;5.03;3.22;;;18.60;99.90;;;;;;5034433;28;20202;-67
2022/10/31 00:08:27;;;;;;;3.47;3.17;;;18.60;99.90;;;;;;5018183;28;20202;-68
2022/10/31 00:10:53;;;;;;;3.92;2.92;;;18.60;99.90;;;;;;5034614;28;20596;-67
2022/10/31 00:13:18;;;;;;;3.72;3.03;;;18.60;99.90;;;;;;5034472;28;20190;-67
2022/10/31 00:15:44;;;;;;;3.85;3.38;;;18.60;99.90;;;;;;5018024;28;20225;-67
2022/10/31 00:18:11;;;;;;;5.78;3.67;;;18.60;99.90;;;;;;5034630;28;20197;-68
2022/10/31 00:20:37;;;;;;;3.63;3.33;;;18.60;99.90;;;;;;5033484;28;20199;-68
2022/10/31 00:23:05;;;;;;;4.40;3.25;;;18.60;99.80;;;;;;5018124;28;20206;-67
2022/10/31 00:25:36;;;;;;;4.88;3.60;;;18.60;99.90;;;;;;5034266;28;20190;-67
2022/10/31 00:28:04;;;;;;;4.00;3.33;;;18.60;99.80;;;;;;5052201;28;20167;-67
2022/10/31 00:30:30;;;;;;;3.70;3.17;;;18.60;99.80;;;;;;5018112;28;20239;-67
2022/10/31 00:32:55;;;;;;;3.88;3.13;;;18.60;99.80;;;;;;5017600;28;20186;-67
2022/10/31 00:35:21;;;;;;;4.20;3.33;;;18.60;99.70;;;;;;5034229;28;20249;-67
2022/10/31 00:37:47;;;;;;;3.75;3.20;;;18.60;99.80;;;;;;5034341;28;20226;-67
2022/10/31 00:40:13;;;;;;;5.28;3.80;;;18.60;99.70;;;;;;5034174;28;20229;-67
2022/10/31 00:42:42;;;;;;;3.95;3.28;;;18.60;99.70;;;;;;5034211;28;20238;-67
2022/10/31 00:45:11;;;;;;;3.85;3.08;;;18.60;99.70;;;;;;5034287;28;20202;-67
2022/10/31 00:47:37;;;;;;;4.13;3.30;;;18.60;99.60;;;;;;5017596;28;20178;-67
2022/10/31 00:50:05;;;;;;;5.47;3.70;;;18.60;99.50;;;;;;5034394;28;20281;-67
2022/10/31 00:52:31;;;;;;;4.03;3.47;;;18.60;99.90;;;;;;5051618;28;20265;-67
2022/10/31 00:54:57;;;;;;;3.95;3.50;;;18.60;99.60;;;;;;5033997;28;20569;-67
2022/10/31 00:57:23;;;;;;;4.28;3.63;;;18.60;99.50;;;;;;5034291;28;20187;-67
2022/10/31 00:59:49;;;;;;;4.18;3.22;;;18.60;99.50;;;;;;5034098;28;20194;-67
2022/10/31 01:02:14;;;;;;;5.88;3.88;;;18.60;99.80;;;;;;5017443;28;20213;-67
2022/10/31 01:04:40;;;;;;;4.18;3.30;;;18.50;99.50;;;;;;5034057;28;20224;-67
2022/10/31 01:07:06;;;;;;;5.22;3.53;;;18.60;99.50;;;;;;5033912;28;20229;-67
2022/10/31 01:09:32;;;;;;;5.00;3.67;;;18.60;99.30;;;;;;5017546;28;20179;-67
2022/10/31 01:11:58;;;;;;;5.78;3.85;;;18.60;99.60;;;;;;5017967;28;20270;-67
2022/10/31 01:14:24;;;;;;;4.57;3.17;;;18.60;99.40;;;;;;5017272;28;20211;-67
2022/10/31 01:16:50;;;;;;;5.35;3.58;;;18.60;99.50;;;;;;5017728;28;20183;-67
2022/10/31 01:19:15;;;;;;;5.30;3.28;;;18.60;99.50;;;;;;5034253;28;20269;-67
2022/10/31 01:21:41;;;;;;;3.67;3.20;;;18.50;99.40;;;;;;5017378;28;20193;-67
2022/10/31 01:24:08;;;;;;;4.07;3.53;;;18.60;99.40;;;;;;5016958;28;20217;-67
2022/10/31 01:26:37;;;;;;;3.90;3.47;;;18.60;99.30;;;;;;5017799;28;20182;-67
2022/10/31 01:29:07;;;;;;;5.40;3.50;;;18.60;99.30;;;;;;5017314;28;20236;-67
2022/10/31 01:31:38;;;;;;;4.68;3.38;;;18.50;99.20;;;;;;5035559;28;20194;-67
2022/10/31 01:34:04;;;;;;;5.25;3.55;;;18.50;99.20;;;;;;5036926;28;20194;-67
2022/10/31 01:39:15;;;;;;;4.43;3.45;;;18.60;99.20;;;;;;5072104;28;20210;-70
2022/10/31 01:41:48;;;;;;;4.60;3.30;;;18.50;99.10;;;;;;5073886;28;20241;-71
2022/10/31 01:44:14;;;;;;;4.30;2.78;;;18.50;99.10;;;;;;5073617;28;20681;-70
2022/10/31 01:47:03;;;;;;;3.97;3.15;;;18.50;99.10;;;;;;5056949;28;20301;-71
2022/10/31 01:49:47;;;;;;;6.13;3.35;;;18.50;99.00;;;;;;5040805;28;20205;-70
2022/10/31 01:52:29;;;;;;;4.22;2.90;;;18.50;99.20;;;;;;5040894;28;20177;-71
2022/10/31 01:55:07;;;;;;;4.32;2.92;;;18.50;99.00;;;;;;5056219;28;20206;-71
2022/10/31 01:57:40;;;;;;;3.30;2.47;;;18.60;99.20;;;;;;5074911;28;20203;-71
2022/10/31 02:00:10;;;;;;;3.55;2.90;;;18.50;99.10;;;;;;5041082;28;20181;-71
2022/10/31 02:02:44;;;;;;;3.22;2.55;;;18.50;99.00;;;;;;5074467;28;20220;-70
2022/10/31 02:05:20;;;;;;;3.60;2.80;;;18.50;99.00;;;;;;5056753;28;20197;-71
2022/10/31 02:07:57;;;;;;;3.65;3.13;;;18.50;98.90;;;;;;5056890;28;20181;-71
2022/10/31 02:10:31;;;;;;;3.33;2.67;;;18.50;98.90;;;;;;5056496;28;20180;-70
2022/10/31 02:13:01;;;;;;;3.38;2.70;;;18.50;99.00;;;;;;5056565;28;20177;-70
2022/10/31 02:15:30;;;;;;;3.38;2.60;;;18.50;99.00;;;;;;5073378;28;20255;-71
2022/10/31 02:17:56;;;;;;;3.75;3.00;;;18.50;99.00;;;;;;5056472;28;20213;-71
2022/10/31 02:20:27;;;;;;;5.05;2.88;;;18.50;98.70;;;;;;5056515;28;20194;-71
2022/10/31 02:23:31;;;;;;;4.88;3.17;;;18.60;98.90;;;;;;5039979;28;20673;-70
2022/10/31 02:26:25;;;;;;;3.63;2.70;;;18.50;98.80;;;;;;5056874;28;20205;-70
2022/10/31 02:29:23;;;;;;;3.42;2.53;;;18.50;98.80;;;;;;5056720;28;20193;-71
2022/10/31 02:32:17;;;;;;;3.92;2.53;;;18.50;98.80;;;;;;5056593;28;20185;-70
2022/10/31 02:35:46;;;;;;;3.50;2.70;;;18.50;98.80;;;;;;5073785;28;20181;-71
2022/10/31 02:38:50;;;;;;;3.47;2.53;;;18.50;98.70;;;;;;5110045;27;20555;-70
2022/10/31 02:41:44;;;;;;;3.05;2.60;;;18.50;98.80;;;;;;5087309;28;20181;-69
2022/10/31 02:44:34;;;;;;;4.38;3.00;;;18.50;98.80;;;;;;5071921;28;20181;-69
2022/10/31 02:47:15;;;;;;;2.92;2.40;;;18.50;98.70;;;;;;5068442;28;20227;-70
2022/10/31 02:50:06;;;;;;;2.67;2.30;;;18.50;98.60;;;;;;5068300;28;20174;-70
2022/10/31 02:52:34;;;;;;;2.50;2.30;;;18.50;98.60;;;;;;5065205;28;20199;-68
2022/10/31 02:55:33;;;;;;;2.90;2.60;;;18.50;98.50;;;;;;5065856;28;20202;-70
2022/10/31 02:58:12;;;;;;;2.85;2.45;;;18.50;98.60;;;;;;5057496;28;20227;-70
2022/10/31 03:01:10;;;;;;;2.75;2.30;;;18.50;98.60;;;;;;5048889;28;20190;-70
2022/10/31 03:04:09;;;;;;;3.08;2.50;;;18.50;98.60;;;;;;5060320;28;20289;-69
2022/10/31 03:07:01;;;;;;;2.90;2.60;;;18.50;98.40;;;;;;5049189;28;20207;-70
2022/10/31 03:09:43;;;;;;;2.30;1.92;;;18.50;98.50;;;;;;5047960;28;20273;-70
2022/10/31 03:12:35;;;;;;;3.17;2.30;;;18.50;98.60;;;;;;5064767;28;20178;-70
2022/10/31 03:15:27;;;;;;;2.95;2.38;;;18.50;98.50;;;;;;5047790;28;20590;-69
2022/10/31 03:18:02;;;;;;;2.97;2.53;;;18.50;98.40;;;;;;5048020;28;20211;-70
2022/10/31 03:20:39;;;;;;;2.83;2.25;;;18.50;98.50;;;;;;5064703;28;20235;-70
2022/10/31 03:23:13;;;;;;;3.97;2.55;;;18.50;98.40;;;;;;5064293;28;20181;-69
2022/10/31 03:25:41;;;;;;;3.47;2.20;;;18.50;98.40;;;;;;5049102;28;20622;-69
2022/10/31 03:28:12;;;;;;;2.83;2.50;;;18.50;98.50;;;;;;5081552;28;20193;-69
2022/10/31 03:30:43;;;;;;;2.38;2.17;;;18.40;98.70;;;;;;5081296;28;20191;-70
2022/10/31 03:33:17;;;;;;;4.78;2.42;;;18.50;98.50;;;;;;5063944;28;20186;-69
2022/10/31 03:35:53;;;;;;;2.63;2.10;;;18.50;98.30;;;;;;5081226;28;20213;-69
2022/10/31 03:38:21;;;;;;;3.72;2.40;;;18.50;98.40;;;;;;5063870;28;20693;-70
2022/10/31 03:40:51;;;;;;;3.40;2.55;;;18.50;98.40;;;;;;5064357;28;20283;-70
2022/10/31 03:43:26;;;;;;;3.60;2.33;;;18.50;98.40;;;;;;5080915;28;20189;-69
2022/10/31 03:45:52;;;;;;;2.65;2.45;;;18.50;98.20;;;;;;5080745;28;20201;-70
2022/10/31 03:48:21;;;;;;;2.95;2.40;;;18.40;98.20;;;;;;5043387;28;20274;-70
2022/10/31 03:51:09;;;;;;;3.55;2.55;;;18.50;98.00;;;;;;5050581;28;20274;-69
2022/10/31 03:53:56;;;;;;;4.18;2.30;;;18.40;98.20;;;;;;5033729;28;20184;-69
2022/10/31 03:56:53;;;;;;;3.13;2.33;;;18.40;98.20;;;;;;5050356;28;20210;-70
2022/10/31 03:59:32;;;;;;;2.80;2.10;;;18.40;98.30;;;;;;5034407;28;20192;-69
2022/10/31 04:02:07;;;;;;;3.03;2.50;;;18.50;98.20;;;;;;5054268;28;20186;-70
2022/10/31 04:04:36;;;;;;;2.92;2.42;;;18.50;98.00;;;;;;5036851;28;20201;-69
2022/10/31 04:07:07;;;;;;;2.33;2.13;;;18.40;98.00;;;;;;5053811;28;20179;-70
2022/10/31 04:09:39;;;;;;;3.25;2.05;;;18.40;97.80;;;;;;5037315;28;20182;-68
2022/10/31 04:12:08;;;;;;;3.83;2.35;;;18.40;98.00;;;;;;5053742;28;20174;-70
2022/10/31 04:14:54;;;;;;;3.00;2.28;;;18.40;98.00;;;;;;5053694;28;20208;-69
2022/10/31 04:17:27;;;;;;;2.58;2.17;;;18.40;98.10;;;;;;5053552;28;20213;-70
2022/10/31 04:19:52;;;;;;;2.17;1.98;;;18.40;98.00;;;;;;5053636;28;20205;-70
2022/10/31 04:22:22;;;;;;;2.92;2.40;;;18.40;97.90;;;;;;5037336;28;20214;-69
2022/10/31 04:24:47;;;;;;;3.05;2.30;;;18.40;98.00;;;;;;5036719;28;20230;-70
2022/10/31 04:27:15;;;;;;;3.90;2.53;;;18.40;97.90;;;;;;5053506;28;20193;-70
2022/10/31 04:29:41;;;;;;;3.03;2.72;;;18.40;97.90;;;;;;5053180;28;20193;-70
2022/10/31 04:32:07;;;;;;;2.78;2.55;;;18.40;97.90;;;;;;5054337;28;20266;-70
2022/10/31 04:34:33;;;;;;;2.33;2.13;;;18.40;97.80;;;;;;5086314;28;20293;-69
2022/10/31 04:36:59;;;;;;;3.60;2.78;;;18.40;97.80;;;;;;5069893;28;20217;-70
2022/10/31 04:39:24;;;;;;;2.42;2.22;;;18.40;97.80;;;;;;5036327;28;20182;-70
2022/10/31 04:42:10;;;;;;;3.08;2.45;;;18.40;97.80;;;;;;5053141;28;20190;-70
2022/10/31 04:44:36;;;;;;;2.78;2.22;;;18.40;97.60;;;;;;5052499;28;20200;-69
2022/10/31 04:47:02;;;;;;;3.85;2.40;;;18.40;97.80;;;;;;5036091;28;20183;-69
2022/10/31 04:49:27;;;;;;;3.75;2.20;;;18.40;97.70;;;;;;5069771;28;20186;-69
2022/10/31 04:51:53;;;;;;;3.47;2.67;;;18.40;97.70;;;;;;5049366;28;20187;-69
2022/10/31 04:54:19;;;;;;;2.53;2.25;;;18.40;97.70;;;;;;5066109;28;20194;-69
2022/10/31 04:57:13;;;;;;;3.78;2.53;;;18.40;97.70;;;;;;5032891;28;20313;-69
2022/10/31 04:59:39;;;;;;;3.47;2.38;;;18.40;97.60;;;;;;5065450;28;20199;-69
2022/10/31 05:02:05;;;;;;;3.78;2.53;;;18.40;97.70;;;;;;5049180;28;20187;-70
2022/10/31 05:04:52;;;;;;;3.88;2.47;;;18.40;97.60;;;;;;5045897;28;20200;-70
2022/10/31 05:07:18;;;;;;;2.80;2.50;;;18.40;97.60;;;;;;5049520;28;20223;-70
2022/10/31 05:09:44;;;;;;;2.40;2.20;;;18.40;97.60;;;;;;5066029;28;20651;-69
2022/10/31 05:12:13;;;;;;;4.68;2.70;;;18.40;97.50;;;;;;5066014;28;20194;-69
2022/10/31 05:14:58;;;;;;;2.45;2.25;;;18.40;97.50;;;;;;5059831;28;20226;-70
2022/10/31 05:17:43;;;;;;;3.13;2.47;;;18.40;97.40;;;;;;5060727;28;20210;-70
2022/10/31 05:20:30;;;;;;;2.90;2.60;;;18.30;97.50;;;;;;5032684;28;20191;-69
2022/10/31 05:23:06;;;;;;;2.58;2.25;;;18.40;97.60;;;;;;5031977;28;20225;-69
2022/10/31 05:25:32;;;;;;;3.05;2.42;;;18.30;97.50;;;;;;5031978;28;20204;-70
2022/10/31 05:28:01;;;;;;;3.00;2.33;;;18.40;97.50;;;;;;5032094;28;20233;-70
2022/10/31 05:30:32;;;;;;;2.95;2.40;;;18.30;97.50;;;;;;5048909;28;20187;-70
2022/10/31 05:32:58;;;;;;;2.42;2.22;;;18.30;97.30;;;;;;5065117;28;20183;-68
2022/10/31 05:35:43;;;;;;;3.60;2.33;;;18.30;97.30;;;;;;5033452;28;20269;-69
2022/10/31 05:38:32;;;;;;;3.13;2.20;;;18.30;97.10;;;;;;5065266;28;20186;-69
2022/10/31 05:41:06;;;;;;;2.63;2.42;;;18.40;97.50;;;;;;5065412;28;20191;-70
2022/10/31 05:43:33;;;;;;;3.33;2.33;;;18.30;97.50;;;;;;5064952;28;20179;-69
2022/10/31 05:46:01;;;;;;;3.03;2.35;;;18.30;97.30;;;;;;5031745;28;20298;-69
2022/10/31 05:48:45;;;;;;;3.63;2.80;;;18.30;97.30;;;;;;5032917;28;20257;-70
2022/10/31 05:51:29;;;;;;;2.80;2.20;;;18.30;97.30;;;;;;5060235;28;20214;-70
2022/10/31 05:53:55;;;;;;;2.95;2.53;;;18.30;97.20;;;;;;5031757;28;20243;-69
2022/10/31 05:56:21;;;;;;;2.85;2.55;;;18.30;97.30;;;;;;5031742;28;20307;-69
2022/10/31 05:58:48;;;;;;;4.18;2.58;;;18.30;97.10;;;;;;5068032;28;20193;-69
2022/10/31 06:01:14;;;;;;;2.97;2.55;;;18.30;97.10;;;;;;5035195;28;20174;-69
2022/10/31 06:03:40;;;;;;;2.63;2.42;;;18.30;97.10;;;;;;5051147;28;20188;-69
2022/10/31 06:06:08;;;;;;;3.88;2.65;;;18.30;97.10;;;;;;5035246;28;20283;-70
2022/10/31 06:08:40;;;;;;;2.97;2.67;;;18.30;96.70;;;;;;5035542;28;20250;-70
2022/10/31 06:11:12;;;;;;;3.45;2.50;;;18.30;96.70;;;;;;5035309;28;20182;-70
2022/10/31 06:13:56;;;;;;;3.25;2.60;;;18.30;97.00;;;;;;5051390;28;20170;-69
2022/10/31 06:16:26;;;;;;;2.95;2.67;;;18.30;97.00;;;;;;5034776;28;20214;-70
2022/10/31 06:18:55;;;;;;;2.92;2.58;;;18.30;96.90;;;;;;5034695;28;20186;-71
2022/10/31 06:21:21;;;;;;;3.45;2.97;;;18.30;97.10;;;;;;5036462;28;20182;-71
2022/10/31 06:23:50;;;;;;;2.40;2.20;;;18.30;97.10;;;;;;5067864;28;20174;-70
2022/10/31 06:26:36;;;;;;;2.47;2.28;;;18.30;96.90;;;;;;5040456;28;20309;-70
2022/10/31 06:29:02;;;;;;;2.85;2.53;;;18.30;97.00;;;;;;5071012;28;20721;-71
2022/10/31 06:31:51;;;;;;;3.17;2.55;;;18.30;96.90;;;;;;5041005;28;20243;-71
2022/10/31 06:34:17;;;;;;;3.28;2.65;;;18.30;96.70;;;;;;5034060;28;20186;-71
2022/10/31 06:36:46;;;;;;;3.03;2.30;;;18.30;96.90;;;;;;5034433;28;20263;-70
2022/10/31 06:39:13;;;;;;;2.80;2.38;;;18.30;97.00;;;;;;5034418;28;20221;-70
2022/10/31 06:41:39;;;;;;;3.08;2.47;;;18.30;96.80;;;;;;5050636;28;20186;-70
2022/10/31 06:44:06;;;;;;;2.95;2.45;;;18.30;97.30;;;;;;5050600;28;20178;-70
2022/10/31 06:46:55;;;;;;;3.05;2.75;;;18.30;96.90;;;;;;5041686;28;20267;-71
2022/10/31 06:49:47;;;;;;;3.70;2.80;;;18.30;96.90;;;;;;5050788;28;20225;-70
2022/10/31 06:52:16;;;;;;;4.55;2.72;;;18.30;96.90;;;;;;5051119;28;20178;-71
2022/10/31 06:54:42;;;;;;;3.17;2.42;;;18.30;96.90;;;;;;5033884;28;20239;-70
2022/10/31 06:57:08;;;;;;;3.00;2.70;;;18.30;97.10;;;;;;5050660;28;20202;-71
2022/10/31 06:59:33;;;;;;;4.47;2.65;;;18.30;96.90;;;;;;5050980;28;20187;-71
2022/10/31 07:02:11;;;;;;;3.05;2.53;;;18.30;96.90;;;;;;5041298;28;20218;-70
2022/10/31 07:04:38;;;;;;;3.42;2.33;;;18.30;96.90;;;;;;5070534;28;20181;-70
2022/10/31 07:07:04;;;;;;;2.70;2.50;;;18.30;96.70;;;;;;5054281;28;20661;-71
2022/10/31 07:09:30;;;;;;;3.22;2.17;;;18.30;96.70;;;;;;5087893;28;20269;-70
2022/10/31 07:12:00;;;;;;;3.05;2.50;;;18.30;96.70;;;;;;5064102;28;20285;-71
2022/10/31 07:14:27;;;;;;;4.57;2.63;;;18.30;96.70;;;;;;5050698;28;20183;-71
2022/10/31 07:16:53;;;;;;;3.65;2.90;;;18.30;96.50;;;;;;5034076;28;20217;-71
2022/10/31 07:19:26;;;;;;;3.75;3.15;;;18.30;96.50;;;;;;5034914;28;20182;-71
2022/10/31 07:21:51;;;;;;;2.70;2.40;;;18.30;96.60;;;;;;5034392;28;20181;-71
2022/10/31 07:24:18;;;;;;;5.55;2.75;;;18.30;96.70;;;;;;5052586;28;20241;-71
2022/10/31 07:26:45;;;;;;;3.00;2.40;;;18.30;96.70;;;;;;5054583;28;20230;-71
2022/10/31 07:29:12;;;;;;;2.90;2.60;;;18.30;96.70;;;;;;5050747;28;20194;-71
2022/10/31 07:31:38;;;;;;;2.90;2.58;;;18.30;96.50;;;;;;5051073;28;20187;-71
2022/10/31 07:34:11;;;;;;;2.58;2.38;;;18.30;96.40;;;;;;5067273;28;20191;-71
2022/10/31 07:37:03;;;;;;;2.85;2.65;;;18.30;96.90;;;;;;5012439;28;20864;-71
2022/10/31 07:39:29;;;;;;;3.42;2.85;;;18.30;96.50;;;;;;5085514;28;20189;-71
2022/10/31 07:41:58;;;;;;;2.58;2.22;;;18.30;96.40;;;;;;5105016;28;20181;-72
2022/10/31 07:44:24;;;;;;;3.33;2.67;;;18.30;96.70;;;;;;5071386;28;20185;-71
2022/10/31 07:47:22;;;;;;;3.05;2.47;;;18.30;96.60;;;;;;5021462;28;20194;-72
2022/10/31 07:50:09;;;;;;;3.28;2.63;;;18.30;96.30;;;;;;5035188;28;20198;-71
2022/10/31 07:53:08;;;;;;;2.63;2.40;;;18.30;96.40;;;;;;5048981;28;20190;-70
2022/10/31 07:55:49;;;;;;;3.33;2.40;;;18.30;96.40;;;;;;5039122;28;20232;-71
2022/10/31 07:58:17;;;;;;;4.03;2.58;;;18.30;96.40;;;;;;5037276;28;20241;-71
2022/10/31 08:00:46;;;;;;;4.00;3.08;;;18.30;96.30;;;;;;5037512;28;20273;-71
2022/10/31 08:03:18;;;;;;;4.07;2.60;;;18.40;96.50;;;;;;5053424;28;20221;-71
2022/10/31 08:06:03;;;;;;;3.35;2.55;;;18.30;96.40;;;;;;5054665;28;20275;-72
2022/10/31 08:09:01;;;;;;;4.13;2.55;;;18.40;96.50;;;;;;5054550;28;20247;-71
2022/10/31 08:11:26;;;;;;;3.20;2.58;;;18.40;96.50;;;;;;5053386;28;20182;-71
2022/10/31 08:13:52;;;;;;;3.03;2.60;;;18.40;96.50;;;;;;5053288;28;20201;-71
2022/10/31 08:16:18;;;;;;;3.67;2.58;;;18.40;96.50;;;;;;5036644;28;20213;-71
2022/10/31 08:18:58;;;;;;;3.67;2.53;;;18.40;96.50;;;;;;5053386;28;20174;-71
2022/10/31 08:21:24;;;;;;;3.90;2.85;;;18.40;96.40;;;;;;5036957;28;20209;-71
2022/10/31 08:23:50;;;;;;;5.65;2.95;;;18.40;96.30;;;;;;5036391;28;20174;-71
2022/10/31 08:26:18;;;;;;;3.97;2.67;;;18.40;96.50;;;;;;5052975;28;20256;-71
2022/10/31 08:28:44;;;;;;;4.50;2.95;;;18.40;96.40;;;;;;5037205;28;20182;-71
2022/10/31 08:31:10;;;;;;;3.85;2.72;;;18.40;96.40;;;;;;5049627;28;20200;-70
2022/10/31 08:33:38;;;;;;;4.03;2.42;;;18.40;96.50;;;;;;5073306;28;20204;-70
2022/10/31 08:36:23;;;;;;;5.50;2.95;;;18.40;96.50;;;;;;5072997;28;20220;-72
2022/10/31 08:39:09;;;;;;;2.95;2.38;;;18.40;96.50;;;;;;5059051;28;20182;-72
2022/10/31 08:41:35;;;;;;;3.65;2.67;;;18.40;96.50;;;;;;5090089;28;20184;-72
2022/10/31 08:44:01;;;;;;;3.00;2.70;;;18.50;96.70;;;;;;5072611;28;20188;-72
2022/10/31 08:46:27;;;;;;;3.92;2.83;;;18.50;96.70;;;;;;5072667;28;20206;-72
2022/10/31 08:48:53;;;;;;;3.80;2.97;;;18.50;96.80;;;;;;5056052;28;20182;-71
2022/10/31 08:51:19;;;;;;;3.63;2.80;;;18.40;96.90;;;;;;5072606;28;20177;-71
2022/10/31 08:53:47;;;;;;;3.15;2.55;;;18.50;97.10;;;;;;5072454;28;20181;-71
2022/10/31 08:56:31;;;;;;;3.67;3.05;;;18.50;97.10;;;;;;5073726;28;20236;-72
2022/10/31 08:58:58;;;;;;;4.35;2.97;;;18.50;97.30;;;;;;5089740;28;20230;-71
2022/10/31 09:01:33;;;;;;;4.03;3.25;;;18.50;97.40;;;;;;5057593;28;20181;-72
2022/10/31 09:03:59;;;;;;;3.33;3.03;;;18.50;97.50;;;;;;5089273;28;20181;-71
2022/10/31 09:06:25;;;;;;;3.50;3.00;;;18.50;97.70;;;;;;5072691;28;20236;-72
2022/10/31 09:08:52;;;;;;;4.13;3.38;;;18.50;97.70;;;;;;5056311;28;20174;-72
2022/10/31 09:11:18;;;;;;;5.75;3.60;;;18.50;98.10;;;;;;5072267;28;20193;-71
2022/10/31 09:14:19;;;;;;;4.75;3.35;;;18.50;98.40;;;;;;5072454;28;20212;-71
2022/10/31 09:17:03;;;;;;;6.57;3.47;;;18.50;98.40;;;;;;5072344;28;20220;-71
2022/10/31 09:19:45;;;;;;;4.70;3.10;;;18.50;98.60;;;;;;5057919;28;20178;-72
2022/10/31 09:22:11;;;;;;;4.03;3.20;;;18.50;98.70;;;;;;5088965;28;20174;-71
2022/10/31 09:24:37;;;;;;;4.22;3.20;;;18.50;98.60;;;;;;5088723;28;20178;-71
2022/10/31 09:27:03;;;;;;;4.10;3.28;;;18.50;98.90;;;;;;5088915;28;20181;-70
2022/10/31 09:29:28;;;;;;;5.38;3.53;;;18.50;99.20;;;;;;5105897;28;20185;-72
2022/10/31 09:31:58;;;;;;;8.73;3.35;;;18.50;98.80;;;;;;5072382;28;20189;-72
2022/10/31 09:34:33;;;;;;;6.68;3.55;;;18.50;99.20;;;;;;5072851;28;20192;-71
2022/10/31 09:37:06;;;;;;;6.25;3.45;;;18.60;99.70;;;;;;5071918;28;20217;-71
2022/10/31 09:39:34;;;;;;;4.07;3.55;;;18.50;99.70;;;;;;5072526;28;20185;-71
2022/10/31 09:42:27;;;;;;;4.15;3.40;;;18.50;99.70;;;;;;5090015;28;20558;-71
2022/10/31 09:45:07;;;;;;;4.97;3.22;;;18.50;99.90;;;;;;5055272;28;20202;-71
2022/10/31 09:48:09;;;;;;;6.03;3.80;;;18.50;99.80;;;;;;5055478;28;20181;-71
2022/10/31 09:50:54;;;;;;;5.28;3.20;;;18.50;99.90;;;;;;5088805;28;20573;-71
2022/10/31 09:53:44;;;;;;;7.32;3.92;;;18.50;99.90;;;;;;5071657;28;20172;-71
2022/10/31 09:56:20;;;;;;;4.70;3.30;;;18.50;99.90;;;;;;5071564;28;20201;-71
2022/10/31 09:58:57;;;;;;;8.90;3.28;;;18.50;99.90;;;;;;5055102;28;20181;-72
2022/10/31 10:01:44;;;;;;;5.65;3.03;;;18.50;99.90;;;;;;5105531;28;20558;-71
2022/10/31 10:04:52;;;;;;;5.05;3.20;;;18.60;99.90;;;;;;5054484;28;20208;-71
2022/10/31 10:08:08;;;;;;;6.18;3.53;;;18.50;99.90;;;;;;5071961;28;20177;-71
2022/10/31 10:11:42;;;;;;;6.45;3.60;;;18.60;99.90;;;;;;5072596;28;20215;-71
2022/10/31 10:14:27;;;;;;;4.55;3.13;;;18.60;99.90;;;;;;5072259;28;20208;-71
2022/10/31 10:17:05;;;;;;;6.70;3.38;;;18.60;99.90;;;;;;5071567;28;20247;-72
2022/10/31 10:20:10;;;;;;;4.15;3.03;;;18.60;99.90;;;;;;5071538;28;20272;-72
2022/10/31 10:22:54;;;;;;;4.40;3.08;;;18.60;99.90;;;;;;5072620;28;20170;-71
2022/10/31 10:25:33;;;;;;;5.93;3.40;;;18.60;99.90;;;;;;5071209;28;20209;-72
2022/10/31 10:28:38;;;;;;;6.00;3.50;;;18.60;99.90;;;;;;5071022;28;20194;-71
2022/10/31 10:31:15;;;;;;;5.07;3.20;;;18.60;99.90;;;;;;5070892;28;20582;-71
2022/10/31 10:34:18;;;;;;;5.60;3.20;;;18.60;99.90;;;;;;5070879;28;20208;-71
2022/10/31 10:37:08;;;;;;;5.13;3.03;;;18.60;99.90;;;;;;5054234;28;20217;-71
2022/10/31 10:39:49;;;;;;;4.47;2.88;;;18.60;99.90;;;;;;5071052;28;20185;-71
2022/10/31 10:48:24;;;;;;;4.68;2.88;;;18.60;99.90;;;;;;5072421;28;20562;-71
2022/10/31 10:50:52;;;;;;;4.78;3.28;;;18.60;99.90;;;;;;5071371;28;20547;-71
2022/10/31 10:53:59;;;;;;;4.10;3.10;;;18.60;99.90;;;;;;5054096;28;20193;-71
2022/10/31 10:57:00;;;;;;;4.32;3.13;;;18.60;99.90;;;;;;5087461;28;20231;-71
2022/10/31 10:59:27;;;;;;;3.55;2.50;;;18.60;99.90;;;;;;5073314;28;20185;-71
2022/10/31 11:01:52;;;;;;;3.67;2.78;;;18.60;99.90;;;;;;5108974;28;20246;-71
2022/10/31 11:04:35;;;;;;;4.35;2.65;;;18.70;99.90;;;;;;5091846;28;20173;-71
2022/10/31 11:07:08;;;;;;;3.35;2.90;;;18.70;99.90;;;;;;5075998;28;20184;-71
2022/10/31 11:09:35;;;;;;;3.88;3.20;;;18.70;99.90;;;;;;5057970;28;20262;-72
2022/10/31 11:12:28;;;;;;;4.32;3.00;;;18.70;99.90;;;;;;5057977;28;20264;-71
2022/10/31 11:15:00;;;;;;;4.63;2.92;;;18.70;99.90;;;;;;5074280;28;20216;-71
2022/10/31 11:17:40;;;;;;;4.22;2.70;;;18.70;99.90;;;;;;5108365;28;20684;-71
2022/10/31 11:20:32;;;;;;;6.75;3.33;;;18.70;99.90;;;;;;5058010;28;20564;-71
2022/10/31 11:23:14;;;;;;;4.65;2.88;;;18.70;99.90;;;;;;5058086;28;20185;-71
2022/10/31 11:25:50;;;;;;;4.80;3.08;;;18.70;99.90;;;;;;5057909;28;20205;-71
2022/10/31 11:28:16;;;;;;;4.13;3.03;;;18.70;99.90;;;;;;5057981;28;20200;-72
2022/10/31 11:30:54;;;;;;;3.40;2.80;;;18.70;99.90;;;;;;5074634;28;20193;-72
2022/10/31 11:33:29;;;;;;;4.07;3.17;;;18.70;99.90;;;;;;5108072;28;20204;-72
2022/10/31 11:35:55;;;;;;;3.55;2.70;;;18.70;99.90;;;;;;5074105;28;20232;-71
2022/10/31 11:38:29;;;;;;;4.30;3.28;;;18.70;99.90;;;;;;5091171;28;20216;-72
2022/10/31 11:41:18;;;;;;;6.00;3.78;;;18.70;99.90;;;;;;5074541;28;20186;-71
2022/10/31 11:44:03;;;;;;;4.35;3.05;;;18.70;99.90;;;;;;5074035;28;20166;-71
2022/10/31 11:46:51;;;;;;;4.10;3.55;;;18.70;99.90;;;;;;5036633;28;20238;-71
2022/10/31 11:49:25;;;;;;;5.78;3.47;;;18.70;99.90;;;;;;5085169;28;20609;-72
2022/10/31 11:51:57;;;;;;;5.20;3.42;;;18.70;99.90;;;;;;5036245;28;20178;-72
2022/10/31 11:54:30;;;;;;;5.75;3.60;;;18.70;99.90;;;;;;5053138;28;20303;-72
2022/10/31 11:56:56;;;;;;;4.85;3.83;;;18.70;99.90;;;;;;5084944;28;20213;-72
2022/10/31 11:59:29;;;;;;;4.38;3.28;;;18.70;99.90;;;;;;5052324;28;20182;-72
2022/10/31 12:01:59;;;;;;;4.68;3.72;;;18.70;99.90;;;;;;5052731;28;20218;-72
2022/10/31 12:04:50;;;;;;;5.90;4.13;;;18.70;99.90;;;;;;5052707;28;20570;-72
2022/10/31 12:07:16;;;;;;;4.70;4.00;;;18.70;99.90;;;;;;5054008;28;20202;-72
2022/10/31 12:09:42;;;;;;;5.15;4.32;;;18.70;99.90;;;;;;5052498;28;20225;-72
2022/10/31 12:12:34;;;;;;;5.15;4.00;;;18.70;99.90;;;;;;5052744;28;20225;-72
2022/10/31 12:15:30;;;;;;;5.75;3.90;;;18.70;99.90;;;;;;5052370;28;20214;-71
2022/10/31 12:18:14;;;;;;;4.82;4.30;;;18.80;99.90;;;;;;5069465;28;20256;-71
2022/10/31 12:21:04;;;;;;;6.10;4.03;;;18.80;99.90;;;;;;5035342;28;20190;-72
2022/10/31 12:23:55;;;;;;;4.97;3.95;;;18.70;99.90;;;;;;5051865;28;20255;-70
2022/10/31 12:26:45;;;;;;;5.40;4.35;;;18.70;99.90;;;;;;5068963;28;20210;-72
2022/10/31 12:30:14;;;;;;;5.25;3.88;;;18.70;99.90;;;;;;5052206;28;20184;-72
2022/10/31 12:33:26;;;;;;;5.88;3.90;;;18.80;99.90;;;;;;5052216;28;20565;-72
2022/10/31 12:36:05;;;;;;;4.55;4.13;;;18.80;99.90;;;;;;5051827;28;20263;-72
2022/10/31 12:38:50;;;;;;;4.93;4.20;;;18.80;99.90;;;;;;5052080;28;20212;-72
2022/10/31 12:41:45;;;;;;;4.78;3.97;;;18.70;99.90;;;;;;5048172;28;20195;-72
2022/10/31 12:44:34;;;;;;;5.22;3.90;;;18.80;99.90;;;;;;5037849;28;20258;-72
2022/10/31 12:47:36;;;;;;;4.03;3.72;;;18.80;99.90;;;;;;5051987;28;20210;-72
2022/10/31 12:50:10;;;;;;;4.93;4.43;;;18.80;99.90;;;;;;5051937;28;20201;-72
2022/10/31 12:52:42;;;;;;;5.40;4.07;;;18.80;99.90;;;;;;5051939;28;20178;-72
2022/10/31 12:55:20;;;;;;;5.80;4.32;;;18.80;99.90;;;;;;5048247;28;20706;-72
2022/10/31 12:57:54;;;;;;;6.40;4.20;;;18.80;99.90;;;;;;5066407;28;20201;-72
2022/10/31 13:00:20;;;;;;;6.65;4.40;;;18.80;99.90;;;;;;5048356;28;20196;-72
2022/10/31 13:03:01;;;;;;;6.78;4.68;;;18.80;99.90;;;;;;5032659;28;20221;-72
2022/10/31 13:05:42;;;;;;;5.45;4.55;;;18.80;99.90;;;;;;5065752;28;20207;-71
2022/10/31 13:08:17;;;;;;;4.82;3.80;;;18.80;99.90;;;;;;5032624;28;20282;-71
2022/10/31 13:10:51;;;;;;;5.55;4.13;;;18.80;99.90;;;;;;5065697;28;20178;-70
2022/10/31 13:13:44;;;;;;;5.35;4.68;;;18.80;99.90;;;;;;5065788;28;20182;-72
2022/10/31 13:16:18;;;;;;;5.10;4.55;;;18.80;99.90;;;;;;5033481;28;20273;-71
2022/10/31 13:19:19;;;;;;;6.47;4.75;;;18.80;99.90;;;;;;5048815;28;20257;-72
2022/10/31 13:22:02;;;;;;;5.45;4.10;;;18.80;99.90;;;;;;5017439;28;20208;-71
2022/10/31 13:24:54;;;;;;;4.70;4.13;;;18.80;99.90;;;;;;5032069;28;20206;-72
2022/10/31 13:27:44;;;;;;;4.57;4.05;;;18.80;99.90;;;;;;5065526;28;20192;-72
2022/10/31 13:30:23;;;;;;;7.32;4.63;;;18.80;99.90;;;;;;5033431;28;20179;-73
2022/10/31 13:33:09;;;;;;;6.32;4.35;;;18.80;99.90;;;;;;5070086;28;20189;-72
2022/10/31 13:35:51;;;;;;;5.20;4.22;;;18.80;99.90;;;;;;5053949;28;20202;-73
2022/10/31 13:38:50;;;;;;;5.65;4.38;;;18.80;99.90;;;;;;5053216;28;20213;-72
2022/10/31 13:41:44;;;;;;;6.78;4.50;;;18.80;99.90;;;;;;5051956;28;20179;-72
2022/10/31 13:44:27;;;;;;;9.25;4.60;;;18.80;99.90;;;;;;5068132;28;20190;-72